sensor_id;sensor_type;location;lat;lon;timestamp;P1;durP1;ratioP1;P2;durP2;ratioP2
60030;SDS011;45901;47.600;9.890;2023-05-23T00:01:10;8.60;;;6.20;;
60030;SDS011;45901;47.600;9.890;2023-05-23T00:03:38;8.23;;;6.90;;
60030;SDS011;45901;47.600;9.890;2023-05-23T00:06:06;9.73;;;6.67;;
60030;SDS011;45901;47.600;9.890;2023-05-23T00:08:33;8.30;;;6.27;;
60030;SDS011;45901;47.600;9.890;2023-05-23T00:11:00;10.27;;;7.30;;
60030;SDS011;45901;47.600;9.890;2023-05-23T00:13:27;9.30;;;6.93;;
60030;SDS011;45901;47.600;9.890;2023-05-23T00:15:57;9.80;;;6.60;;
60030;SDS011;45901;47.600;9.890;2023-05-23T00:18:26;9.93;;;7.13;;
60030;SDS011;45901;47.600;9.890;2023-05-23T00:20:54;9.53;;;6.40;;
60030;SDS011;45901;47.600;9.890;2023-05-23T00:23:23;10.47;;;7.03;;
60030;SDS011;45901;47.600;9.890;2023-05-23T00:25:50;8.60;;;6.67;;
60030;SDS011;45901;47.600;9.890;2023-05-23T00:28:18;8.93;;;7.47;;
60030;SDS011;45901;47.600;9.890;2023-05-23T00:30:46;9.77;;;7.20;;
60030;SDS011;45901;47.600;9.890;2023-05-23T00:33:14;11.07;;;6.63;;
60030;SDS011;45901;47.600;9.890;2023-05-23T00:35:47;12.57;;;6.77;;
60030;SDS011;45901;47.600;9.890;2023-05-23T00:38:15;12.60;;;7.40;;
60030;SDS011;45901;47.600;9.890;2023-05-23T00:40:42;9.87;;;7.17;;
60030;SDS011;45901;47.600;9.890;2023-05-23T00:43:09;10.53;;;7.17;;
60030;SDS011;45901;47.600;9.890;2023-05-23T00:45:36;8.23;;;6.60;;
60030;SDS011;45901;47.600;9.890;2023-05-23T00:48:04;10.63;;;7.03;;
60030;SDS011;45901;47.600;9.890;2023-05-23T00:50:33;11.77;;;7.23;;
60030;SDS011;45901;47.600;9.890;2023-05-23T00:53:02;9.57;;;6.90;;
60030;SDS011;45901;47.600;9.890;2023-05-23T00:55:30;11.27;;;7.03;;
60030;SDS011;45901;47.600;9.890;2023-05-23T00:57:57;10.67;;;7.27;;
60030;SDS011;45901;47.600;9.890;2023-05-23T01:00:25;11.83;;;7.77;;
60030;SDS011;45901;47.600;9.890;2023-05-23T01:02:54;9.43;;;7.33;;
60030;SDS011;45901;47.600;9.890;2023-05-23T01:05:22;12.17;;;8.23;;
60030;SDS011;45901;47.600;9.890;2023-05-23T01:07:50;11.40;;;7.57;;
60030;SDS011;45901;47.600;9.890;2023-05-23T01:10:20;9.33;;;7.63;;
60030;SDS011;45901;47.600;9.890;2023-05-23T01:12:55;13.37;;;7.90;;
60030;SDS011;45901;47.600;9.890;2023-05-23T01:15:35;10.40;;;8.10;;
60030;SDS011;45901;47.600;9.890;2023-05-23T01:18:09;10.37;;;7.30;;
60030;SDS011;45901;47.600;9.890;2023-05-23T01:20:47;10.70;;;7.83;;
60030;SDS011;45901;47.600;9.890;2023-05-23T01:23:42;12.03;;;8.70;;
60030;SDS011;45901;47.600;9.890;2023-05-23T01:26:55;12.20;;;8.20;;
60030;SDS011;45901;47.600;9.890;2023-05-23T01:29:36;12.83;;;8.10;;
60030;SDS011;45901;47.600;9.890;2023-05-23T01:32:09;10.07;;;7.67;;
60030;SDS011;45901;47.600;9.890;2023-05-23T01:34:38;13.60;;;7.97;;
60030;SDS011;45901;47.600;9.890;2023-05-23T01:37:07;10.00;;;7.37;;
60030;SDS011;45901;47.600;9.890;2023-05-23T01:39:35;12.07;;;8.47;;
60030;SDS011;45901;47.600;9.890;2023-05-23T01:42:03;12.13;;;7.77;;
60030;SDS011;45901;47.600;9.890;2023-05-23T01:44:32;10.80;;;8.20;;
60030;SDS011;45901;47.600;9.890;2023-05-23T01:47:03;12.20;;;7.80;;
60030;SDS011;45901;47.600;9.890;2023-05-23T01:49:34;10.13;;;7.93;;
60030;SDS011;45901;47.600;9.890;2023-05-23T01:52:04;13.23;;;8.13;;
60030;SDS011;45901;47.600;9.890;2023-05-23T01:54:34;10.10;;;7.77;;
60030;SDS011;45901;47.600;9.890;2023-05-23T01:57:06;10.23;;;7.13;;
60030;SDS011;45901;47.600;9.890;2023-05-23T01:59:36;8.97;;;7.40;;
60030;SDS011;45901;47.600;9.890;2023-05-23T02:02:03;12.63;;;7.57;;
60030;SDS011;45901;47.600;9.890;2023-05-23T02:04:31;11.13;;;8.47;;
60030;SDS011;45901;47.600;9.890;2023-05-23T02:06:59;11.00;;;7.37;;
60030;SDS011;45901;47.600;9.890;2023-05-23T02:09:26;15.57;;;7.47;;
60030;SDS011;45901;47.600;9.890;2023-05-23T02:11:54;12.70;;;7.50;;
60030;SDS011;45901;47.600;9.890;2023-05-23T02:14:21;9.87;;;7.40;;
60030;SDS011;45901;47.600;9.890;2023-05-23T02:16:52;9.63;;;7.87;;
60030;SDS011;45901;47.600;9.890;2023-05-23T02:19:19;10.60;;;7.20;;
60030;SDS011;45901;47.600;9.890;2023-05-23T02:21:46;13.40;;;7.83;;
60030;SDS011;45901;47.600;9.890;2023-05-23T02:24:14;10.87;;;8.33;;
60030;SDS011;45901;47.600;9.890;2023-05-23T02:26:41;16.30;;;8.53;;
60030;SDS011;45901;47.600;9.890;2023-05-23T02:29:09;12.27;;;7.77;;
60030;SDS011;45901;47.600;9.890;2023-05-23T02:31:36;11.60;;;8.00;;
60030;SDS011;45901;47.600;9.890;2023-05-23T02:34:05;10.53;;;8.13;;
60030;SDS011;45901;47.600;9.890;2023-05-23T02:36:32;9.77;;;8.07;;
60030;SDS011;45901;47.600;9.890;2023-05-23T02:39:01;11.47;;;8.23;;
60030;SDS011;45901;47.600;9.890;2023-05-23T02:41:29;11.73;;;7.83;;
60030;SDS011;45901;47.600;9.890;2023-05-23T02:43:56;11.97;;;8.27;;
60030;SDS011;45901;47.600;9.890;2023-05-23T02:46:24;11.70;;;7.63;;
60030;SDS011;45901;47.600;9.890;2023-05-23T02:48:51;12.10;;;7.97;;
60030;SDS011;45901;47.600;9.890;2023-05-23T02:51:20;10.10;;;8.07;;
60030;SDS011;45901;47.600;9.890;2023-05-23T02:53:48;9.00;;;7.53;;
60030;SDS011;45901;47.600;9.890;2023-05-23T02:56:15;15.17;;;7.90;;
60030;SDS011;45901;47.600;9.890;2023-05-23T02:58:43;10.87;;;7.90;;
60030;SDS011;45901;47.600;9.890;2023-05-23T03:01:10;10.63;;;8.20;;
60030;SDS011;45901;47.600;9.890;2023-05-23T03:03:43;9.80;;;7.57;;
60030;SDS011;45901;47.600;9.890;2023-05-23T03:06:11;12.00;;;7.97;;
60030;SDS011;45901;47.600;9.890;2023-05-23T03:08:40;13.40;;;8.43;;
60030;SDS011;45901;47.600;9.890;2023-05-23T03:11:07;10.87;;;8.33;;
60030;SDS011;45901;47.600;9.890;2023-05-23T03:13:35;12.27;;;8.87;;
60030;SDS011;45901;47.600;9.890;2023-05-23T03:16:02;11.57;;;8.63;;
60030;SDS011;45901;47.600;9.890;2023-05-23T03:18:30;11.23;;;8.70;;
60030;SDS011;45901;47.600;9.890;2023-05-23T03:20:57;10.90;;;9.00;;
60030;SDS011;45901;47.600;9.890;2023-05-23T03:23:24;9.73;;;8.13;;
60030;SDS011;45901;47.600;9.890;2023-05-23T03:25:53;10.37;;;8.43;;
60030;SDS011;45901;47.600;9.890;2023-05-23T03:28:21;15.37;;;9.10;;
60030;SDS011;45901;47.600;9.890;2023-05-23T03:30:48;13.10;;;8.60;;
60030;SDS011;45901;47.600;9.890;2023-05-23T03:33:15;14.57;;;9.07;;
60030;SDS011;45901;47.600;9.890;2023-05-23T03:35:43;11.07;;;9.10;;
60030;SDS011;45901;47.600;9.890;2023-05-23T03:38:10;11.23;;;8.77;;
60030;SDS011;45901;47.600;9.890;2023-05-23T03:40:38;11.43;;;8.90;;
60030;SDS011;45901;47.600;9.890;2023-05-23T03:43:07;13.33;;;9.57;;
60030;SDS011;45901;47.600;9.890;2023-05-23T03:45:34;15.00;;;9.73;;
60030;SDS011;45901;47.600;9.890;2023-05-23T03:48:02;10.40;;;9.30;;
60030;SDS011;45901;47.600;9.890;2023-05-23T03:50:29;13.00;;;9.20;;
60030;SDS011;45901;47.600;9.890;2023-05-23T03:52:56;14.50;;;8.60;;
60030;SDS011;45901;47.600;9.890;2023-05-23T03:55:24;9.90;;;7.57;;
60030;SDS011;45901;47.600;9.890;2023-05-23T03:57:51;12.07;;;8.80;;
60030;SDS011;45901;47.600;9.890;2023-05-23T04:00:21;11.07;;;8.27;;
60030;SDS011;45901;47.600;9.890;2023-05-23T04:02:48;9.03;;;7.70;;
60030;SDS011;45901;47.600;9.890;2023-05-23T04:05:16;12.63;;;8.53;;
60030;SDS011;45901;47.600;9.890;2023-05-23T04:07:43;14.53;;;9.33;;
60030;SDS011;45901;47.600;9.890;2023-05-23T04:10:12;11.87;;;9.00;;
60030;SDS011;45901;47.600;9.890;2023-05-23T04:12:39;11.03;;;8.53;;
60030;SDS011;45901;47.600;9.890;2023-05-23T04:15:07;10.73;;;8.63;;
60030;SDS011;45901;47.600;9.890;2023-05-23T04:17:37;16.80;;;9.00;;
60030;SDS011;45901;47.600;9.890;2023-05-23T04:20:05;12.13;;;8.97;;
60030;SDS011;45901;47.600;9.890;2023-05-23T04:22:35;11.20;;;9.10;;
60030;SDS011;45901;47.600;9.890;2023-05-23T04:25:02;14.47;;;9.33;;
60030;SDS011;45901;47.600;9.890;2023-05-23T04:27:31;10.67;;;8.03;;
60030;SDS011;45901;47.600;9.890;2023-05-23T04:29:59;11.83;;;8.73;;
60030;SDS011;45901;47.600;9.890;2023-05-23T04:32:27;11.53;;;8.27;;
60030;SDS011;45901;47.600;9.890;2023-05-23T04:34:56;11.13;;;9.20;;
60030;SDS011;45901;47.600;9.890;2023-05-23T04:37:26;13.10;;;9.23;;
60030;SDS011;45901;47.600;9.890;2023-05-23T04:39:53;11.83;;;9.00;;
60030;SDS011;45901;47.600;9.890;2023-05-23T04:42:21;11.63;;;9.23;;
60030;SDS011;45901;47.600;9.890;2023-05-23T04:44:50;11.23;;;9.00;;
60030;SDS011;45901;47.600;9.890;2023-05-23T04:47:17;11.57;;;8.77;;
60030;SDS011;45901;47.600;9.890;2023-05-23T04:49:45;11.50;;;9.13;;
60030;SDS011;45901;47.600;9.890;2023-05-23T04:52:14;12.53;;;9.27;;
60030;SDS011;45901;47.600;9.890;2023-05-23T04:54:43;13.23;;;8.50;;
60030;SDS011;45901;47.600;9.890;2023-05-23T04:57:13;13.23;;;8.50;;
60030;SDS011;45901;47.600;9.890;2023-05-23T04:59:41;17.20;;;9.00;;
60030;SDS011;45901;47.600;9.890;2023-05-23T05:02:08;12.47;;;8.63;;
60030;SDS011;45901;47.600;9.890;2023-05-23T05:04:36;9.57;;;7.77;;
60030;SDS011;45901;47.600;9.890;2023-05-23T05:07:03;12.87;;;9.13;;
60030;SDS011;45901;47.600;9.890;2023-05-23T05:09:33;11.33;;;8.40;;
60030;SDS011;45901;47.600;9.890;2023-05-23T05:12:01;14.23;;;9.33;;
60030;SDS011;45901;47.600;9.890;2023-05-23T05:14:28;13.40;;;8.80;;
60030;SDS011;45901;47.600;9.890;2023-05-23T05:16:56;13.93;;;9.20;;
60030;SDS011;45901;47.600;9.890;2023-05-23T05:19:23;12.53;;;9.00;;
60030;SDS011;45901;47.600;9.890;2023-05-23T05:21:51;16.47;;;9.07;;
60030;SDS011;45901;47.600;9.890;2023-05-23T05:24:18;10.50;;;8.33;;
60030;SDS011;45901;47.600;9.890;2023-05-23T05:26:48;12.17;;;9.03;;
60030;SDS011;45901;47.600;9.890;2023-05-23T05:29:15;11.57;;;9.10;;
60030;SDS011;45901;47.600;9.890;2023-05-23T05:31:42;15.47;;;8.93;;
60030;SDS011;45901;47.600;9.890;2023-05-23T05:34:11;13.03;;;8.77;;
60030;SDS011;45901;47.600;9.890;2023-05-23T05:36:38;13.10;;;9.50;;
60030;SDS011;45901;47.600;9.890;2023-05-23T05:39:12;13.07;;;10.13;;
60030;SDS011;45901;47.600;9.890;2023-05-23T05:41:39;11.87;;;8.33;;
60030;SDS011;45901;47.600;9.890;2023-05-23T05:44:08;13.77;;;9.33;;
60030;SDS011;45901;47.600;9.890;2023-05-23T05:46:36;11.90;;;9.43;;
60030;SDS011;45901;47.600;9.890;2023-05-23T05:49:03;12.73;;;9.03;;
60030;SDS011;45901;47.600;9.890;2023-05-23T05:51:31;12.57;;;9.13;;
60030;SDS011;45901;47.600;9.890;2023-05-23T05:53:58;15.03;;;9.67;;
60030;SDS011;45901;47.600;9.890;2023-05-23T05:56:25;12.20;;;9.10;;
60030;SDS011;45901;47.600;9.890;2023-05-23T05:58:53;13.27;;;9.27;;
60030;SDS011;45901;47.600;9.890;2023-05-23T06:01:22;11.90;;;9.23;;
60030;SDS011;45901;47.600;9.890;2023-05-23T06:03:50;11.20;;;9.23;;
60030;SDS011;45901;47.600;9.890;2023-05-23T06:06:18;14.00;;;9.10;;
60030;SDS011;45901;47.600;9.890;2023-05-23T06:08:46;11.53;;;9.07;;
60030;SDS011;45901;47.600;9.890;2023-05-23T06:11:13;11.10;;;8.43;;
60030;SDS011;45901;47.600;9.890;2023-05-23T06:13:41;12.57;;;8.67;;
60030;SDS011;45901;47.600;9.890;2023-05-23T06:16:08;12.43;;;8.33;;
60030;SDS011;45901;47.600;9.890;2023-05-23T06:18:37;11.50;;;8.63;;
60030;SDS011;45901;47.600;9.890;2023-05-23T06:21:05;14.93;;;10.13;;
60030;SDS011;45901;47.600;9.890;2023-05-23T06:23:32;12.73;;;9.27;;
60030;SDS011;45901;47.600;9.890;2023-05-23T06:26:00;10.97;;;8.93;;
60030;SDS011;45901;47.600;9.890;2023-05-23T06:28:27;11.60;;;9.33;;
60030;SDS011;45901;47.600;9.890;2023-05-23T06:30:55;12.93;;;8.83;;
60030;SDS011;45901;47.600;9.890;2023-05-23T06:33:22;11.13;;;8.73;;
60030;SDS011;45901;47.600;9.890;2023-05-23T06:35:51;11.53;;;9.23;;
60030;SDS011;45901;47.600;9.890;2023-05-23T06:38:19;13.83;;;9.47;;
60030;SDS011;45901;47.600;9.890;2023-05-23T06:40:46;11.57;;;9.67;;
60030;SDS011;45901;47.600;9.890;2023-05-23T06:43:14;11.63;;;9.27;;
60030;SDS011;45901;47.600;9.890;2023-05-23T06:48:26;15.20;;;9.23;;
60030;SDS011;45901;47.600;9.890;2023-05-23T06:50:56;13.03;;;9.10;;
60030;SDS011;45901;47.600;9.890;2023-05-23T06:53:23;11.47;;;9.17;;
60030;SDS011;45901;47.600;9.890;2023-05-23T06:55:50;13.50;;;9.27;;
60030;SDS011;45901;47.600;9.890;2023-05-23T06:58:18;12.17;;;9.67;;
60030;SDS011;45901;47.600;9.890;2023-05-23T07:00:49;14.70;;;9.17;;
60030;SDS011;45901;47.600;9.890;2023-05-23T07:03:16;12.07;;;9.20;;
60030;SDS011;45901;47.600;9.890;2023-05-23T07:05:44;13.93;;;9.07;;
60030;SDS011;45901;47.600;9.890;2023-05-23T07:08:12;12.80;;;9.03;;
60030;SDS011;45901;47.600;9.890;2023-05-23T07:10:40;12.07;;;8.10;;
60030;SDS011;45901;47.600;9.890;2023-05-23T07:13:07;12.40;;;7.80;;
60030;SDS011;45901;47.600;9.890;2023-05-23T07:15:35;10.67;;;7.90;;
60030;SDS011;45901;47.600;9.890;2023-05-23T07:18:02;13.07;;;9.17;;
60030;SDS011;45901;47.600;9.890;2023-05-23T07:20:31;13.00;;;8.90;;
60030;SDS011;45901;47.600;9.890;2023-05-23T07:22:59;13.03;;;8.23;;
60030;SDS011;45901;47.600;9.890;2023-05-23T07:25:28;12.83;;;8.77;;
60030;SDS011;45901;47.600;9.890;2023-05-23T07:27:58;14.47;;;10.53;;
60030;SDS011;45901;47.600;9.890;2023-05-23T07:30:26;17.50;;;10.97;;
60030;SDS011;45901;47.600;9.890;2023-05-23T07:32:53;16.17;;;12.00;;
60030;SDS011;45901;47.600;9.890;2023-05-23T07:35:20;14.20;;;11.43;;
60030;SDS011;45901;47.600;9.890;2023-05-23T07:37:50;16.67;;;12.37;;
60030;SDS011;45901;47.600;9.890;2023-05-23T07:40:18;19.13;;;11.73;;
60030;SDS011;45901;47.600;9.890;2023-05-23T07:42:47;17.07;;;11.47;;
60030;SDS011;45901;47.600;9.890;2023-05-23T07:45:15;19.50;;;12.63;;
60030;SDS011;45901;47.600;9.890;2023-05-23T07:47:42;14.87;;;12.10;;
60030;SDS011;45901;47.600;9.890;2023-05-23T07:50:09;16.90;;;12.53;;
60030;SDS011;45901;47.600;9.890;2023-05-23T07:52:37;15.47;;;12.47;;
60030;SDS011;45901;47.600;9.890;2023-05-23T07:55:06;17.73;;;13.30;;
60030;SDS011;45901;47.600;9.890;2023-05-23T07:57:34;16.73;;;12.20;;
60030;SDS011;45901;47.600;9.890;2023-05-23T08:00:03;19.70;;;13.57;;
60030;SDS011;45901;47.600;9.890;2023-05-23T08:02:34;18.17;;;13.93;;
60030;SDS011;45901;47.600;9.890;2023-05-23T08:05:02;21.80;;;12.97;;
60030;SDS011;45901;47.600;9.890;2023-05-23T08:07:29;17.20;;;13.10;;
60030;SDS011;45901;47.600;9.890;2023-05-23T08:09:57;16.00;;;12.00;;
60030;SDS011;45901;47.600;9.890;2023-05-23T08:12:24;19.77;;;14.60;;
60030;SDS011;45901;47.600;9.890;2023-05-23T08:14:52;16.90;;;14.37;;
60030;SDS011;45901;47.600;9.890;2023-05-23T08:17:21;18.77;;;14.60;;
60030;SDS011;45901;47.600;9.890;2023-05-23T08:19:49;22.00;;;14.87;;
60030;SDS011;45901;47.600;9.890;2023-05-23T08:22:16;19.23;;;15.57;;
60030;SDS011;45901;47.600;9.890;2023-05-23T08:24:43;21.47;;;14.90;;
60030;SDS011;45901;47.600;9.890;2023-05-23T08:27:11;18.53;;;14.33;;
60030;SDS011;45901;47.600;9.890;2023-05-23T08:29:38;21.20;;;14.93;;
60030;SDS011;45901;47.600;9.890;2023-05-23T08:32:06;20.60;;;15.00;;
60030;SDS011;45901;47.600;9.890;2023-05-23T08:34:35;20.27;;;15.17;;
60030;SDS011;45901;47.600;9.890;2023-05-23T08:37:03;22.03;;;14.70;;
60030;SDS011;45901;47.600;9.890;2023-05-23T08:39:31;22.87;;;16.73;;
60030;SDS011;45901;47.600;9.890;2023-05-23T08:41:58;24.93;;;17.77;;
60030;SDS011;45901;47.600;9.890;2023-05-23T08:44:26;29.40;;;20.87;;
60030;SDS011;45901;47.600;9.890;2023-05-23T08:46:53;31.53;;;23.17;;
60030;SDS011;45901;47.600;9.890;2023-05-23T08:49:22;26.97;;;20.53;;
60030;SDS011;45901;47.600;9.890;2023-05-23T08:51:52;28.93;;;20.10;;
60030;SDS011;45901;47.600;9.890;2023-05-23T08:54:26;27.83;;;20.57;;
60030;SDS011;45901;47.600;9.890;2023-05-23T08:56:54;28.87;;;19.37;;
60030;SDS011;45901;47.600;9.890;2023-05-23T08:59:22;31.40;;;21.53;;
60030;SDS011;45901;47.600;9.890;2023-05-23T09:01:51;25.67;;;18.87;;
60030;SDS011;45901;47.600;9.890;2023-05-23T09:04:22;28.60;;;19.53;;
60030;SDS011;45901;47.600;9.890;2023-05-23T09:06:49;30.97;;;20.43;;
60030;SDS011;45901;47.600;9.890;2023-05-23T09:09:19;30.47;;;19.97;;
60030;SDS011;45901;47.600;9.890;2023-05-23T09:11:46;26.07;;;18.67;;
60030;SDS011;45901;47.600;9.890;2023-05-23T09:14:14;26.93;;;19.17;;
60030;SDS011;45901;47.600;9.890;2023-05-23T09:16:44;30.03;;;20.63;;
60030;SDS011;45901;47.600;9.890;2023-05-23T09:19:13;28.63;;;20.13;;
60030;SDS011;45901;47.600;9.890;2023-05-23T09:21:42;26.77;;;18.30;;
60030;SDS011;45901;47.600;9.890;2023-05-23T09:24:11;27.73;;;20.80;;
60030;SDS011;45901;47.600;9.890;2023-05-23T09:26:38;29.17;;;20.17;;
60030;SDS011;45901;47.600;9.890;2023-05-23T09:29:06;27.70;;;19.63;;
60030;SDS011;45901;47.600;9.890;2023-05-23T09:31:33;28.53;;;22.00;;
60030;SDS011;45901;47.600;9.890;2023-05-23T09:34:01;29.50;;;21.57;;
60030;SDS011;45901;47.600;9.890;2023-05-23T09:36:29;34.33;;;22.93;;
60030;SDS011;45901;47.600;9.890;2023-05-23T09:39:00;38.03;;;23.50;;
60030;SDS011;45901;47.600;9.890;2023-05-23T09:41:33;31.63;;;23.93;;
60030;SDS011;45901;47.600;9.890;2023-05-23T09:44:04;33.20;;;24.13;;
60030;SDS011;45901;47.600;9.890;2023-05-23T09:46:34;30.17;;;23.03;;
60030;SDS011;45901;47.600;9.890;2023-05-23T09:49:08;36.20;;;23.80;;
60030;SDS011;45901;47.600;9.890;2023-05-23T09:51:42;31.87;;;22.10;;
60030;SDS011;45901;47.600;9.890;2023-05-23T09:54:22;27.70;;;21.47;;
60030;SDS011;45901;47.600;9.890;2023-05-23T09:56:51;28.90;;;20.70;;
60030;SDS011;45901;47.600;9.890;2023-05-23T09:59:21;26.00;;;20.23;;
60030;SDS011;45901;47.600;9.890;2023-05-23T10:01:54;31.13;;;21.03;;
60030;SDS011;45901;47.600;9.890;2023-05-23T10:04:23;33.07;;;20.40;;
60030;SDS011;45901;47.600;9.890;2023-05-23T10:06:55;28.00;;;19.23;;
60030;SDS011;45901;47.600;9.890;2023-05-23T10:09:32;31.27;;;21.03;;
60030;SDS011;45901;47.600;9.890;2023-05-23T10:15:10;34.67;;;24.53;;
60030;SDS011;45901;47.600;9.890;2023-05-23T10:17:52;34.50;;;23.70;;
60030;SDS011;45901;47.600;9.890;2023-05-23T10:20:38;36.00;;;23.67;;
60030;SDS011;45901;47.600;9.890;2023-05-23T10:23:07;32.40;;;25.00;;
60030;SDS011;45901;47.600;9.890;2023-05-23T10:25:35;38.80;;;27.00;;
60030;SDS011;45901;47.600;9.890;2023-05-23T10:28:04;40.07;;;27.47;;
60030;SDS011;45901;47.600;9.890;2023-05-23T10:30:32;37.37;;;25.60;;
60030;SDS011;45901;47.600;9.890;2023-05-23T10:33:01;38.17;;;27.10;;
60030;SDS011;45901;47.600;9.890;2023-05-23T10:35:33;35.13;;;26.07;;
60030;SDS011;45901;47.600;9.890;2023-05-23T10:38:12;33.60;;;25.20;;
60030;SDS011;45901;47.600;9.890;2023-05-23T10:41:04;38.40;;;26.33;;
60030;SDS011;45901;47.600;9.890;2023-05-23T10:43:41;36.93;;;26.33;;
60030;SDS011;45901;47.600;9.890;2023-05-23T10:46:19;35.57;;;25.50;;
60030;SDS011;45901;47.600;9.890;2023-05-23T10:48:46;36.97;;;25.20;;
60030;SDS011;45901;47.600;9.890;2023-05-23T10:51:19;36.43;;;25.13;;
60030;SDS011;45901;47.600;9.890;2023-05-23T10:53:52;34.43;;;24.17;;
60030;SDS011;45901;47.600;9.890;2023-05-23T10:56:20;37.40;;;24.53;;
60030;SDS011;45901;47.600;9.890;2023-05-23T10:58:52;33.97;;;24.93;;
60030;SDS011;45901;47.600;9.890;2023-05-23T11:01:21;35.23;;;24.73;;
60030;SDS011;45901;47.600;9.890;2023-05-23T11:03:49;36.20;;;25.33;;
60030;SDS011;45901;47.600;9.890;2023-05-23T11:06:28;43.50;;;25.37;;
60030;SDS011;45901;47.600;9.890;2023-05-23T11:09:03;39.33;;;26.20;;
60030;SDS011;45901;47.600;9.890;2023-05-23T11:11:51;35.07;;;25.33;;
60030;SDS011;45901;47.600;9.890;2023-05-23T11:14:50;37.83;;;24.53;;
60030;SDS011;45901;47.600;9.890;2023-05-23T11:17:28;34.37;;;22.10;;
60030;SDS011;45901;47.600;9.890;2023-05-23T11:19:58;31.87;;;23.43;;
60030;SDS011;45901;47.600;9.890;2023-05-23T11:22:30;33.30;;;20.63;;
60030;SDS011;45901;47.600;9.890;2023-05-23T11:24:58;33.33;;;21.17;;
60030;SDS011;45901;47.600;9.890;2023-05-23T11:27:28;30.93;;;22.53;;
60030;SDS011;45901;47.600;9.890;2023-05-23T11:30:02;32.53;;;23.23;;
60030;SDS011;45901;47.600;9.890;2023-05-23T11:32:33;30.53;;;22.20;;
60030;SDS011;45901;47.600;9.890;2023-05-23T11:35:02;36.33;;;24.87;;
60030;SDS011;45901;47.600;9.890;2023-05-23T11:37:31;32.30;;;23.43;;
60030;SDS011;45901;47.600;9.890;2023-05-23T11:40:25;28.03;;;20.83;;
60030;SDS011;45901;47.600;9.890;2023-05-23T11:42:52;25.70;;;19.37;;
60030;SDS011;45901;47.600;9.890;2023-05-23T11:45:21;26.60;;;19.60;;
60030;SDS011;45901;47.600;9.890;2023-05-23T11:47:49;26.77;;;19.43;;
60030;SDS011;45901;47.600;9.890;2023-05-23T11:50:16;29.10;;;20.23;;
60030;SDS011;45901;47.600;9.890;2023-05-23T11:52:45;27.90;;;19.97;;
60030;SDS011;45901;47.600;9.890;2023-05-23T11:55:15;24.87;;;18.90;;
60030;SDS011;45901;47.600;9.890;2023-05-23T11:57:43;25.80;;;17.83;;
60030;SDS011;45901;47.600;9.890;2023-05-23T12:00:11;22.37;;;16.77;;
60030;SDS011;45901;47.600;9.890;2023-05-23T12:02:43;18.13;;;13.97;;
60030;SDS011;45901;47.600;9.890;2023-05-23T12:05:13;19.87;;;15.87;;
60030;SDS011;45901;47.600;9.890;2023-05-23T12:07:42;20.43;;;15.17;;
60030;SDS011;45901;47.600;9.890;2023-05-23T12:10:11;19.47;;;15.27;;
60030;SDS011;45901;47.600;9.890;2023-05-23T12:12:40;21.73;;;16.40;;
60030;SDS011;45901;47.600;9.890;2023-05-23T12:15:08;29.97;;;20.93;;
60030;SDS011;45901;47.600;9.890;2023-05-23T12:17:37;27.40;;;20.70;;
60030;SDS011;45901;47.600;9.890;2023-05-23T12:20:09;32.60;;;21.10;;
60030;SDS011;45901;47.600;9.890;2023-05-23T12:22:37;30.40;;;21.70;;
60030;SDS011;45901;47.600;9.890;2023-05-23T12:25:07;35.20;;;23.47;;
60030;SDS011;45901;47.600;9.890;2023-05-23T12:27:35;32.77;;;24.07;;
60030;SDS011;45901;47.600;9.890;2023-05-23T12:30:06;32.13;;;23.63;;
60030;SDS011;45901;47.600;9.890;2023-05-23T12:32:38;36.80;;;25.53;;
60030;SDS011;45901;47.600;9.890;2023-05-23T12:35:07;31.30;;;20.67;;
60030;SDS011;45901;47.600;9.890;2023-05-23T12:37:38;27.43;;;19.57;;
60030;SDS011;45901;47.600;9.890;2023-05-23T12:40:10;26.80;;;19.40;;
60030;SDS011;45901;47.600;9.890;2023-05-23T12:42:44;30.83;;;19.97;;
60030;SDS011;45901;47.600;9.890;2023-05-23T12:45:18;30.70;;;21.13;;
60030;SDS011;45901;47.600;9.890;2023-05-23T12:47:45;30.03;;;21.43;;
60030;SDS011;45901;47.600;9.890;2023-05-23T12:50:14;33.13;;;20.40;;
60030;SDS011;45901;47.600;9.890;2023-05-23T12:52:42;34.57;;;23.33;;
60030;SDS011;45901;47.600;9.890;2023-05-23T12:55:10;29.43;;;22.43;;
60030;SDS011;45901;47.600;9.890;2023-05-23T12:57:39;31.13;;;22.43;;
60030;SDS011;45901;47.600;9.890;2023-05-23T13:00:07;31.10;;;21.23;;
60030;SDS011;45901;47.600;9.890;2023-05-23T13:02:36;28.70;;;19.43;;
60030;SDS011;45901;47.600;9.890;2023-05-23T13:05:04;23.13;;;17.40;;
60030;SDS011;45901;47.600;9.890;2023-05-23T13:07:33;26.50;;;19.43;;
60030;SDS011;45901;47.600;9.890;2023-05-23T13:10:02;23.13;;;17.17;;
60030;SDS011;45901;47.600;9.890;2023-05-23T13:12:30;26.37;;;20.47;;
60030;SDS011;45901;47.600;9.890;2023-05-23T13:14:58;27.60;;;20.90;;
60030;SDS011;45901;47.600;9.890;2023-05-23T13:17:26;30.47;;;21.43;;
60030;SDS011;45901;47.600;9.890;2023-05-23T13:19:53;27.03;;;20.57;;
60030;SDS011;45901;47.600;9.890;2023-05-23T13:22:21;30.37;;;21.40;;
60030;SDS011;45901;47.600;9.890;2023-05-23T13:24:50;30.30;;;20.90;;
60030;SDS011;45901;47.600;9.890;2023-05-23T13:27:17;29.40;;;22.33;;
60030;SDS011;45901;47.600;9.890;2023-05-23T13:29:44;33.83;;;23.07;;
60030;SDS011;45901;47.600;9.890;2023-05-23T13:32:12;31.60;;;22.80;;
60030;SDS011;45901;47.600;9.890;2023-05-23T13:34:40;34.10;;;24.57;;
60030;SDS011;45901;47.600;9.890;2023-05-23T13:37:08;33.53;;;24.27;;
60030;SDS011;45901;47.600;9.890;2023-05-23T13:39:35;32.03;;;25.20;;
60030;SDS011;45901;47.600;9.890;2023-05-23T13:42:04;34.43;;;26.30;;
60030;SDS011;45901;47.600;9.890;2023-05-23T13:44:33;39.20;;;26.27;;
60030;SDS011;45901;47.600;9.890;2023-05-23T13:47:08;37.83;;;27.60;;
60030;SDS011;45901;47.600;9.890;2023-05-23T13:49:37;37.77;;;26.53;;
60030;SDS011;45901;47.600;9.890;2023-05-23T13:52:04;39.20;;;27.10;;
60030;SDS011;45901;47.600;9.890;2023-05-23T13:54:32;34.93;;;26.07;;
60030;SDS011;45901;47.600;9.890;2023-05-23T13:57:00;36.27;;;26.07;;
60030;SDS011;45901;47.600;9.890;2023-05-23T13:59:29;32.57;;;25.63;;
60030;SDS011;45901;47.600;9.890;2023-05-23T14:01:56;31.77;;;24.17;;
60030;SDS011;45901;47.600;9.890;2023-05-23T14:04:24;36.57;;;25.00;;
60030;SDS011;45901;47.600;9.890;2023-05-23T14:06:51;30.87;;;24.20;;
60030;SDS011;45901;47.600;9.890;2023-05-23T14:09:19;36.67;;;23.27;;
60030;SDS011;45901;47.600;9.890;2023-05-23T14:11:47;28.50;;;21.63;;
60030;SDS011;45901;47.600;9.890;2023-05-23T14:14:16;25.90;;;18.87;;
60030;SDS011;45901;47.600;9.890;2023-05-23T14:16:45;26.50;;;20.50;;
60030;SDS011;45901;47.600;9.890;2023-05-23T14:19:12;24.30;;;16.90;;
60030;SDS011;45901;47.600;9.890;2023-05-23T14:21:40;22.63;;;18.53;;
60030;SDS011;45901;47.600;9.890;2023-05-23T14:24:07;26.07;;;19.87;;
60030;SDS011;45901;47.600;9.890;2023-05-23T14:26:34;25.73;;;20.07;;
60030;SDS011;45901;47.600;9.890;2023-05-23T14:29:02;28.20;;;21.40;;
60030;SDS011;45901;47.600;9.890;2023-05-23T14:31:29;26.70;;;20.30;;
60030;SDS011;45901;47.600;9.890;2023-05-23T14:33:58;29.30;;;20.80;;
60030;SDS011;45901;47.600;9.890;2023-05-23T14:36:26;27.33;;;21.50;;
60030;SDS011;45901;47.600;9.890;2023-05-23T14:38:54;27.00;;;22.73;;
60030;SDS011;45901;47.600;9.890;2023-05-23T14:41:21;28.17;;;21.73;;
60030;SDS011;45901;47.600;9.890;2023-05-23T14:43:49;30.33;;;23.30;;
60030;SDS011;45901;47.600;9.890;2023-05-23T14:46:16;33.50;;;23.97;;